sensor_id;sensor_type;location;lat;lon;timestamp;P1;durP1;ratioP1;P2;durP2;ratioP2
24644;SDS011;12780;45.502;9.146;2024-03-22T00:01:15;106.38;;;50.67;;
24644;SDS011;12780;45.502;9.146;2024-03-22T00:03:41;103.28;;;52.15;;
24644;SDS011;12780;45.502;9.146;2024-03-22T00:06:07;98.68;;;52.35;;
24644;SDS011;12780;45.502;9.146;2024-03-22T00:08:33;112.45;;;55.83;;
24644;SDS011;12780;45.502;9.146;2024-03-22T00:10:59;111.55;;;54.83;;
24644;SDS011;12780;45.502;9.146;2024-03-22T00:13:24;123.10;;;60.30;;
24644;SDS011;12780;45.502;9.146;2024-03-22T00:15:50;118.30;;;57.58;;
24644;SDS011;12780;45.502;9.146;2024-03-22T00:18:16;123.03;;;60.72;;
24644;SDS011;12780;45.502;9.146;2024-03-22T00:20:42;118.88;;;59.80;;
24644;SDS011;12780;45.502;9.146;2024-03-22T00:23:08;120.03;;;59.78;;
24644;SDS011;12780;45.502;9.146;2024-03-22T00:25:34;122.18;;;60.08;;
24644;SDS011;12780;45.502;9.146;2024-03-22T00:28:00;126.40;;;61.75;;
24644;SDS011;12780;45.502;9.146;2024-03-22T00:30:26;127.70;;;61.25;;
24644;SDS011;12780;45.502;9.146;2024-03-22T00:32:53;131.75;;;62.20;;
24644;SDS011;12780;45.502;9.146;2024-03-22T00:35:19;122.88;;;61.60;;
24644;SDS011;12780;45.502;9.146;2024-03-22T00:37:45;126.57;;;62.50;;
24644;SDS011;12780;45.502;9.146;2024-03-22T00:40:11;128.55;;;65.70;;
24644;SDS011;12780;45.502;9.146;2024-03-22T00:42:37;127.22;;;63.92;;
24644;SDS011;12780;45.502;9.146;2024-03-22T00:45:03;125.60;;;64.57;;
24644;SDS011;12780;45.502;9.146;2024-03-22T00:47:29;128.07;;;63.75;;
24644;SDS011;12780;45.502;9.146;2024-03-22T00:49:55;134.38;;;65.75;;
24644;SDS011;12780;45.502;9.146;2024-03-22T00:52:21;138.40;;;65.18;;
24644;SDS011;12780;45.502;9.146;2024-03-22T00:54:48;137.30;;;67.65;;
24644;SDS011;12780;45.502;9.146;2024-03-22T00:57:14;137.93;;;68.22;;
24644;SDS011;12780;45.502;9.146;2024-03-22T00:59:40;136.60;;;65.82;;
24644;SDS011;12780;45.502;9.146;2024-03-22T01:02:06;135.05;;;66.78;;
24644;SDS011;12780;45.502;9.146;2024-03-22T01:04:32;138.57;;;67.55;;
24644;SDS011;12780;45.502;9.146;2024-03-22T01:06:58;144.93;;;66.50;;
24644;SDS011;12780;45.502;9.146;2024-03-22T01:09:24;141.30;;;67.55;;
24644;SDS011;12780;45.502;9.146;2024-03-22T01:11:50;151.23;;;67.85;;
24644;SDS011;12780;45.502;9.146;2024-03-22T01:14:16;139.10;;;69.43;;
24644;SDS011;12780;45.502;9.146;2024-03-22T01:16:42;142.88;;;69.18;;
24644;SDS011;12780;45.502;9.146;2024-03-22T01:19:08;145.30;;;68.32;;
24644;SDS011;12780;45.502;9.146;2024-03-22T01:21:34;144.38;;;70.15;;
24644;SDS011;12780;45.502;9.146;2024-03-22T01:24:00;137.73;;;68.82;;
24644;SDS011;12780;45.502;9.146;2024-03-22T01:26:27;137.13;;;67.72;;
24644;SDS011;12780;45.502;9.146;2024-03-22T01:28:53;139.50;;;67.53;;
24644;SDS011;12780;45.502;9.146;2024-03-22T01:31:19;139.25;;;68.60;;
24644;SDS011;12780;45.502;9.146;2024-03-22T01:33:45;150.52;;;68.72;;
24644;SDS011;12780;45.502;9.146;2024-03-22T01:36:11;148.85;;;70.47;;
24644;SDS011;12780;45.502;9.146;2024-03-22T01:38:36;143.23;;;69.32;;
24644;SDS011;12780;45.502;9.146;2024-03-22T01:41:02;145.57;;;67.50;;
24644;SDS011;12780;45.502;9.146;2024-03-22T01:43:28;140.73;;;70.07;;
24644;SDS011;12780;45.502;9.146;2024-03-22T01:45:54;142.82;;;70.00;;
24644;SDS011;12780;45.502;9.146;2024-03-22T01:48:20;139.73;;;69.30;;
24644;SDS011;12780;45.502;9.146;2024-03-22T01:50:46;147.23;;;72.00;;
24644;SDS011;12780;45.502;9.146;2024-03-22T01:53:12;147.80;;;70.70;;
24644;SDS011;12780;45.502;9.146;2024-03-22T01:55:38;154.15;;;74.18;;
24644;SDS011;12780;45.502;9.146;2024-03-22T01:58:05;141.52;;;69.60;;
24644;SDS011;12780;45.502;9.146;2024-03-22T02:00:31;135.85;;;68.88;;
24644;SDS011;12780;45.502;9.146;2024-03-22T02:02:57;149.18;;;71.15;;
24644;SDS011;12780;45.502;9.146;2024-03-22T02:05:23;143.45;;;69.00;;
24644;SDS011;12780;45.502;9.146;2024-03-22T02:07:49;151.18;;;70.40;;
24644;SDS011;12780;45.502;9.146;2024-03-22T02:10:15;141.65;;;70.32;;
24644;SDS011;12780;45.502;9.146;2024-03-22T02:12:41;150.02;;;71.40;;
24644;SDS011;12780;45.502;9.146;2024-03-22T02:15:07;150.38;;;71.15;;
24644;SDS011;12780;45.502;9.146;2024-03-22T02:17:34;153.75;;;71.82;;
24644;SDS011;12780;45.502;9.146;2024-03-22T02:20:00;142.05;;;69.28;;
24644;SDS011;12780;45.502;9.146;2024-03-22T02:22:26;143.55;;;69.68;;
24644;SDS011;12780;45.502;9.146;2024-03-22T02:24:53;144.35;;;69.78;;
24644;SDS011;12780;45.502;9.146;2024-03-22T02:27:18;155.68;;;70.10;;
24644;SDS011;12780;45.502;9.146;2024-03-22T02:29:44;144.52;;;70.20;;
24644;SDS011;12780;45.502;9.146;2024-03-22T02:32:10;141.80;;;70.63;;
24644;SDS011;12780;45.502;9.146;2024-03-22T02:34:36;144.15;;;70.88;;
24644;SDS011;12780;45.502;9.146;2024-03-22T02:37:03;146.82;;;67.03;;
24644;SDS011;12780;45.502;9.146;2024-03-22T02:39:29;140.57;;;69.30;;
24644;SDS011;12780;45.502;9.146;2024-03-22T02:41:55;149.35;;;70.05;;
24644;SDS011;12780;45.502;9.146;2024-03-22T02:44:21;140.82;;;69.50;;
24644;SDS011;12780;45.502;9.146;2024-03-22T02:46:47;140.73;;;70.15;;
24644;SDS011;12780;45.502;9.146;2024-03-22T02:49:13;141.05;;;70.53;;
24644;SDS011;12780;45.502;9.146;2024-03-22T02:51:39;144.85;;;70.70;;
24644;SDS011;12780;45.502;9.146;2024-03-22T02:54:05;151.55;;;71.75;;
24644;SDS011;12780;45.502;9.146;2024-03-22T02:56:31;144.60;;;71.28;;
24644;SDS011;12780;45.502;9.146;2024-03-22T02:58:57;157.45;;;72.75;;
24644;SDS011;12780;45.502;9.146;2024-03-22T03:01:23;147.68;;;70.43;;
24644;SDS011;12780;45.502;9.146;2024-03-22T03:03:49;147.38;;;72.13;;
24644;SDS011;12780;45.502;9.146;2024-03-22T03:06:15;154.63;;;71.13;;
24644;SDS011;12780;45.502;9.146;2024-03-22T03:08:43;149.82;;;71.95;;
24644;SDS011;12780;45.502;9.146;2024-03-22T03:11:09;147.32;;;71.90;;
24644;SDS011;12780;45.502;9.146;2024-03-22T03:13:34;155.35;;;72.80;;
24644;SDS011;12780;45.502;9.146;2024-03-22T03:16:00;151.75;;;72.50;;
24644;SDS011;12780;45.502;9.146;2024-03-22T03:18:26;152.77;;;73.93;;
24644;SDS011;12780;45.502;9.146;2024-03-22T03:20:52;149.38;;;70.13;;
24644;SDS011;12780;45.502;9.146;2024-03-22T03:23:18;159.25;;;71.10;;
24644;SDS011;12780;45.502;9.146;2024-03-22T03:25:45;159.02;;;72.55;;
24644;SDS011;12780;45.502;9.146;2024-03-22T03:28:11;158.88;;;73.43;;
24644;SDS011;12780;45.502;9.146;2024-03-22T03:30:38;149.82;;;72.07;;
24644;SDS011;12780;45.502;9.146;2024-03-22T03:33:04;161.23;;;73.55;;
24644;SDS011;12780;45.502;9.146;2024-03-22T03:35:30;158.02;;;73.47;;
24644;SDS011;12780;45.502;9.146;2024-03-22T03:37:56;158.70;;;72.82;;
24644;SDS011;12780;45.502;9.146;2024-03-22T03:40:22;149.57;;;73.57;;
24644;SDS011;12780;45.502;9.146;2024-03-22T03:42:49;147.98;;;71.30;;
24644;SDS011;12780;45.502;9.146;2024-03-22T03:45:15;154.52;;;74.00;;
24644;SDS011;12780;45.502;9.146;2024-03-22T03:47:41;160.40;;;75.40;;
24644;SDS011;12780;45.502;9.146;2024-03-22T03:50:07;152.68;;;71.65;;
24644;SDS011;12780;45.502;9.146;2024-03-22T03:52:34;163.18;;;73.70;;
24644;SDS011;12780;45.502;9.146;2024-03-22T03:55:00;160.40;;;75.35;;
24644;SDS011;12780;45.502;9.146;2024-03-22T03:57:26;151.15;;;71.07;;
24644;SDS011;12780;45.502;9.146;2024-03-22T03:59:51;148.60;;;72.00;;
24644;SDS011;12780;45.502;9.146;2024-03-22T04:02:17;152.20;;;71.55;;
24644;SDS011;12780;45.502;9.146;2024-03-22T04:04:43;143.82;;;68.40;;
24644;SDS011;12780;45.502;9.146;2024-03-22T04:07:09;158.63;;;73.35;;
24644;SDS011;12780;45.502;9.146;2024-03-22T04:09:35;151.85;;;69.90;;
24644;SDS011;12780;45.502;9.146;2024-03-22T04:12:01;163.48;;;76.28;;
24644;SDS011;12780;45.502;9.146;2024-03-22T04:14:27;158.77;;;74.85;;
24644;SDS011;12780;45.502;9.146;2024-03-22T04:16:53;163.13;;;76.13;;
24644;SDS011;12780;45.502;9.146;2024-03-22T04:19:20;158.52;;;75.00;;
24644;SDS011;12780;45.502;9.146;2024-03-22T04:21:47;165.45;;;76.53;;
24644;SDS011;12780;45.502;9.146;2024-03-22T04:24:12;161.30;;;74.45;;
24644;SDS011;12780;45.502;9.146;2024-03-22T04:26:38;162.23;;;75.65;;
24644;SDS011;12780;45.502;9.146;2024-03-22T04:29:04;161.10;;;75.18;;
24644;SDS011;12780;45.502;9.146;2024-03-22T04:31:30;174.98;;;74.82;;
24644;SDS011;12780;45.502;9.146;2024-03-22T04:33:56;164.15;;;74.50;;
24644;SDS011;12780;45.502;9.146;2024-03-22T04:36:22;161.75;;;75.07;;
24644;SDS011;12780;45.502;9.146;2024-03-22T04:38:48;164.15;;;75.13;;
24644;SDS011;12780;45.502;9.146;2024-03-22T04:41:14;166.60;;;75.90;;
24644;SDS011;12780;45.502;9.146;2024-03-22T04:43:40;165.82;;;77.38;;
24644;SDS011;12780;45.502;9.146;2024-03-22T04:46:06;169.85;;;76.25;;
24644;SDS011;12780;45.502;9.146;2024-03-22T04:48:32;163.43;;;75.15;;
24644;SDS011;12780;45.502;9.146;2024-03-22T04:50:58;168.05;;;75.35;;
24644;SDS011;12780;45.502;9.146;2024-03-22T04:53:24;171.00;;;77.70;;
24644;SDS011;12780;45.502;9.146;2024-03-22T04:55:50;168.23;;;75.75;;
24644;SDS011;12780;45.502;9.146;2024-03-22T04:58:17;165.32;;;76.82;;
24644;SDS011;12780;45.502;9.146;2024-03-22T05:00:43;176.52;;;78.85;;
24644;SDS011;12780;45.502;9.146;2024-03-22T05:03:10;163.00;;;77.65;;
24644;SDS011;12780;45.502;9.146;2024-03-22T05:05:37;163.48;;;74.97;;
24644;SDS011;12780;45.502;9.146;2024-03-22T05:08:03;161.18;;;75.80;;
24644;SDS011;12780;45.502;9.146;2024-03-22T05:10:29;164.35;;;74.32;;
24644;SDS011;12780;45.502;9.146;2024-03-22T05:12:55;156.23;;;70.60;;
24644;SDS011;12780;45.502;9.146;2024-03-22T05:15:21;165.07;;;76.38;;
24644;SDS011;12780;45.502;9.146;2024-03-22T05:17:48;152.63;;;73.18;;
24644;SDS011;12780;45.502;9.146;2024-03-22T05:20:14;173.80;;;77.13;;
24644;SDS011;12780;45.502;9.146;2024-03-22T05:22:41;172.02;;;78.43;;
24644;SDS011;12780;45.502;9.146;2024-03-22T05:25:07;165.30;;;74.43;;
24644;SDS011;12780;45.502;9.146;2024-03-22T05:27:34;156.98;;;73.93;;
24644;SDS011;12780;45.502;9.146;2024-03-22T05:30:00;158.65;;;74.40;;
24644;SDS011;12780;45.502;9.146;2024-03-22T05:32:26;147.63;;;69.18;;
24644;SDS011;12780;45.502;9.146;2024-03-22T05:34:52;164.10;;;73.00;;
24644;SDS011;12780;45.502;9.146;2024-03-22T05:37:18;149.82;;;71.47;;
24644;SDS011;12780;45.502;9.146;2024-03-22T05:39:45;149.02;;;69.82;;
24644;SDS011;12780;45.502;9.146;2024-03-22T05:42:11;161.30;;;72.78;;
24644;SDS011;12780;45.502;9.146;2024-03-22T05:44:36;160.35;;;73.15;;
24644;SDS011;12780;45.502;9.146;2024-03-22T05:47:02;158.43;;;71.38;;
24644;SDS011;12780;45.502;9.146;2024-03-22T05:49:28;159.55;;;73.97;;
24644;SDS011;12780;45.502;9.146;2024-03-22T05:51:54;160.35;;;74.47;;
24644;SDS011;12780;45.502;9.146;2024-03-22T05:54:20;160.63;;;73.63;;
24644;SDS011;12780;45.502;9.146;2024-03-22T05:56:46;165.77;;;73.90;;
24644;SDS011;12780;45.502;9.146;2024-03-22T05:59:12;155.48;;;71.63;;
24644;SDS011;12780;45.502;9.146;2024-03-22T06:01:38;165.02;;;74.07;;
24644;SDS011;12780;45.502;9.146;2024-03-22T06:04:05;161.20;;;73.05;;
24644;SDS011;12780;45.502;9.146;2024-03-22T06:06:34;155.57;;;72.00;;
24644;SDS011;12780;45.502;9.146;2024-03-22T06:09:01;150.45;;;72.03;;
24644;SDS011;12780;45.502;9.146;2024-03-22T06:11:35;166.30;;;74.07;;
24644;SDS011;12780;45.502;9.146;2024-03-22T06:14:01;159.18;;;72.68;;
24644;SDS011;12780;45.502;9.146;2024-03-22T06:16:27;160.27;;;74.80;;
24644;SDS011;12780;45.502;9.146;2024-03-22T06:18:53;156.35;;;71.25;;
24644;SDS011;12780;45.502;9.146;2024-03-22T06:21:19;154.77;;;71.63;;
24644;SDS011;12780;45.502;9.146;2024-03-22T06:23:49;157.23;;;73.47;;
24644;SDS011;12780;45.502;9.146;2024-03-22T06:26:15;157.13;;;74.18;;
24644;SDS011;12780;45.502;9.146;2024-03-22T06:28:41;153.90;;;73.45;;
24644;SDS011;12780;45.502;9.146;2024-03-22T06:31:07;151.20;;;71.32;;
24644;SDS011;12780;45.502;9.146;2024-03-22T06:33:33;161.35;;;72.55;;
24644;SDS011;12780;45.502;9.146;2024-03-22T06:35:59;148.50;;;69.88;;
24644;SDS011;12780;45.502;9.146;2024-03-22T06:38:25;161.32;;;72.45;;
24644;SDS011;12780;45.502;9.146;2024-03-22T06:40:51;146.63;;;69.88;;
24644;SDS011;12780;45.502;9.146;2024-03-22T06:43:17;142.25;;;68.43;;
24644;SDS011;12780;45.502;9.146;2024-03-22T06:45:43;152.80;;;69.60;;
24644;SDS011;12780;45.502;9.146;2024-03-22T06:48:09;155.57;;;69.93;;
24644;SDS011;12780;45.502;9.146;2024-03-22T06:50:35;151.68;;;70.72;;
24644;SDS011;12780;45.502;9.146;2024-03-22T06:53:01;147.52;;;69.53;;
24644;SDS011;12780;45.502;9.146;2024-03-22T06:55:26;149.20;;;71.03;;
24644;SDS011;12780;45.502;9.146;2024-03-22T06:57:52;150.90;;;68.97;;
24644;SDS011;12780;45.502;9.146;2024-03-22T07:00:18;143.63;;;67.53;;
24644;SDS011;12780;45.502;9.146;2024-03-22T07:02:44;152.73;;;68.30;;
24644;SDS011;12780;45.502;9.146;2024-03-22T07:05:10;142.55;;;67.75;;
24644;SDS011;12780;45.502;9.146;2024-03-22T07:07:37;136.00;;;67.75;;
24644;SDS011;12780;45.502;9.146;2024-03-22T07:10:03;142.70;;;66.32;;
24644;SDS011;12780;45.502;9.146;2024-03-22T07:12:33;135.05;;;63.90;;
24644;SDS011;12780;45.502;9.146;2024-03-22T07:14:59;132.55;;;63.83;;
24644;SDS011;12780;45.502;9.146;2024-03-22T07:17:25;128.48;;;61.53;;
24644;SDS011;12780;45.502;9.146;2024-03-22T07:19:51;133.95;;;62.38;;
24644;SDS011;12780;45.502;9.146;2024-03-22T07:22:18;121.70;;;58.35;;
24644;SDS011;12780;45.502;9.146;2024-03-22T07:24:44;125.60;;;61.17;;
24644;SDS011;12780;45.502;9.146;2024-03-22T07:27:10;127.47;;;60.35;;
24644;SDS011;12780;45.502;9.146;2024-03-22T07:29:36;131.43;;;62.10;;
24644;SDS011;12780;45.502;9.146;2024-03-22T07:32:02;110.75;;;55.80;;
24644;SDS011;12780;45.502;9.146;2024-03-22T07:34:29;119.63;;;57.38;;
24644;SDS011;12780;45.502;9.146;2024-03-22T07:36:55;117.32;;;57.80;;
24644;SDS011;12780;45.502;9.146;2024-03-22T07:39:21;111.32;;;56.00;;
24644;SDS011;12780;45.502;9.146;2024-03-22T07:41:48;111.45;;;53.22;;
24644;SDS011;12780;45.502;9.146;2024-03-22T07:44:15;109.25;;;54.33;;
24644;SDS011;12780;45.502;9.146;2024-03-22T07:46:51;104.13;;;54.65;;
24644;SDS011;12780;45.502;9.146;2024-03-22T07:49:17;91.85;;;46.85;;
24644;SDS011;12780;45.502;9.146;2024-03-22T07:51:43;94.78;;;48.00;;
24644;SDS011;12780;45.502;9.146;2024-03-22T07:54:09;84.85;;;45.75;;
24644;SDS011;12780;45.502;9.146;2024-03-22T07:56:35;81.40;;;43.50;;
24644;SDS011;12780;45.502;9.146;2024-03-22T07:59:01;76.15;;;42.65;;
24644;SDS011;12780;45.502;9.146;2024-03-22T08:01:27;80.97;;;44.97;;
24644;SDS011;12780;45.502;9.146;2024-03-22T08:03:53;83.85;;;44.78;;
24644;SDS011;12780;45.502;9.146;2024-03-22T08:06:19;85.60;;;43.42;;
24644;SDS011;12780;45.502;9.146;2024-03-22T08:08:46;74.55;;;41.38;;
24644;SDS011;12780;45.502;9.146;2024-03-22T08:11:12;77.38;;;42.40;;
24644;SDS011;12780;45.502;9.146;2024-03-22T08:13:38;83.35;;;44.20;;
24644;SDS011;12780;45.502;9.146;2024-03-22T08:16:04;80.88;;;44.42;;
24644;SDS011;12780;45.502;9.146;2024-03-22T08:18:31;79.72;;;43.55;;
24644;SDS011;12780;45.502;9.146;2024-03-22T08:20:57;85.28;;;44.97;;
24644;SDS011;12780;45.502;9.146;2024-03-22T08:23:24;86.20;;;44.47;;
24644;SDS011;12780;45.502;9.146;2024-03-22T08:25:50;83.32;;;45.20;;
24644;SDS011;12780;45.502;9.146;2024-03-22T08:28:16;83.93;;;45.05;;
24644;SDS011;12780;45.502;9.146;2024-03-22T08:30:42;84.57;;;44.85;;
24644;SDS011;12780;45.502;9.146;2024-03-22T08:33:11;88.90;;;47.67;;
24644;SDS011;12780;45.502;9.146;2024-03-22T08:35:37;88.55;;;45.35;;
24644;SDS011;12780;45.502;9.146;2024-03-22T08:38:03;82.25;;;45.70;;
24644;SDS011;12780;45.502;9.146;2024-03-22T08:40:30;80.75;;;45.83;;
24644;SDS011;12780;45.502;9.146;2024-03-22T08:42:56;85.03;;;43.20;;
24644;SDS011;12780;45.502;9.146;2024-03-22T08:45:22;83.75;;;42.58;;
24644;SDS011;12780;45.502;9.146;2024-03-22T08:47:49;80.10;;;43.47;;
24644;SDS011;12780;45.502;9.146;2024-03-22T08:50:16;77.05;;;41.58;;
24644;SDS011;12780;45.502;9.146;2024-03-22T08:52:42;75.57;;;42.33;;
24644;SDS011;12780;45.502;9.146;2024-03-22T08:55:08;81.97;;;43.08;;
24644;SDS011;12780;45.502;9.146;2024-03-22T08:57:35;86.93;;;44.35;;
24644;SDS011;12780;45.502;9.146;2024-03-22T09:00:01;76.35;;;37.75;;
24644;SDS011;12780;45.502;9.146;2024-03-22T09:02:27;85.90;;;43.15;;
24644;SDS011;12780;45.502;9.146;2024-03-22T09:04:53;81.28;;;43.10;;
24644;SDS011;12780;45.502;9.146;2024-03-22T09:07:20;83.60;;;44.08;;
24644;SDS011;12780;45.502;9.146;2024-03-22T09:09:48;80.57;;;43.97;;
24644;SDS011;12780;45.502;9.146;2024-03-22T09:12:14;75.82;;;43.72;;
24644;SDS011;12780;45.502;9.146;2024-03-22T09:14:40;73.85;;;42.40;;
24644;SDS011;12780;45.502;9.146;2024-03-22T09:17:07;79.13;;;43.38;;
24644;SDS011;12780;45.502;9.146;2024-03-22T09:19:33;79.78;;;42.67;;
24644;SDS011;12780;45.502;9.146;2024-03-22T09:21:58;80.28;;;42.63;;
24644;SDS011;12780;45.502;9.146;2024-03-22T09:24:24;80.88;;;42.83;;
24644;SDS011;12780;45.502;9.146;2024-03-22T09:26:50;84.00;;;43.20;;
24644;SDS011;12780;45.502;9.146;2024-03-22T09:29:18;82.22;;;43.72;;
24644;SDS011;12780;45.502;9.146;2024-03-22T09:31:43;75.70;;;42.88;;
24644;SDS011;12780;45.502;9.146;2024-03-22T09:34:11;81.25;;;42.78;;
24644;SDS011;12780;45.502;9.146;2024-03-22T09:36:37;87.65;;;44.70;;
24644;SDS011;12780;45.502;9.146;2024-03-22T09:39:03;79.38;;;43.15;;
24644;SDS011;12780;45.502;9.146;2024-03-22T09:41:31;82.50;;;43.17;;
24644;SDS011;12780;45.502;9.146;2024-03-22T09:43:58;85.55;;;43.08;;
24644;SDS011;12780;45.502;9.146;2024-03-22T09:46:27;79.28;;;42.08;;
24644;SDS011;12780;45.502;9.146;2024-03-22T09:48:56;82.90;;;43.38;;
24644;SDS011;12780;45.502;9.146;2024-03-22T09:51:24;79.70;;;42.33;;
24644;SDS011;12780;45.502;9.146;2024-03-22T09:53:50;75.38;;;42.33;;
24644;SDS011;12780;45.502;9.146;2024-03-22T09:56:17;78.43;;;41.63;;
24644;SDS011;12780;45.502;9.146;2024-03-22T09:58:46;77.88;;;41.58;;
24644;SDS011;12780;45.502;9.146;2024-03-22T10:01:12;80.70;;;39.97;;
24644;SDS011;12780;45.502;9.146;2024-03-22T10:03:38;81.53;;;42.17;;
24644;SDS011;12780;45.502;9.146;2024-03-22T10:06:04;84.85;;;42.13;;
24644;SDS011;12780;45.502;9.146;2024-03-22T10:08:30;83.25;;;41.08;;
24644;SDS011;12780;45.502;9.146;2024-03-22T10:10:57;78.35;;;39.67;;
24644;SDS011;12780;45.502;9.146;2024-03-22T10:13:23;72.88;;;39.92;;
24644;SDS011;12780;45.502;9.146;2024-03-22T10:15:49;71.40;;;39.90;;
24644;SDS011;12780;45.502;9.146;2024-03-22T10:18:15;76.00;;;41.25;;
24644;SDS011;12780;45.502;9.146;2024-03-22T10:20:41;73.20;;;40.38;;
24644;SDS011;12780;45.502;9.146;2024-03-22T10:23:07;82.40;;;41.17;;
24644;SDS011;12780;45.502;9.146;2024-03-22T10:25:33;73.50;;;38.20;;
24644;SDS011;12780;45.502;9.146;2024-03-22T10:28:00;74.13;;;38.10;;
24644;SDS011;12780;45.502;9.146;2024-03-22T10:30:26;76.30;;;38.42;;
24644;SDS011;12780;45.502;9.146;2024-03-22T10:32:53;74.03;;;35.95;;
24644;SDS011;12780;45.502;9.146;2024-03-22T10:35:19;69.38;;;36.10;;
24644;SDS011;12780;45.502;9.146;2024-03-22T10:37:45;69.93;;;36.22;;
24644;SDS011;12780;45.502;9.146;2024-03-22T10:40:12;65.88;;;35.13;;
24644;SDS011;12780;45.502;9.146;2024-03-22T10:42:39;69.25;;;36.28;;
24644;SDS011;12780;45.502;9.146;2024-03-22T10:45:06;68.18;;;38.15;;
24644;SDS011;12780;45.502;9.146;2024-03-22T10:47:33;70.43;;;37.35;;
24644;SDS011;12780;45.502;9.146;2024-03-22T10:50:06;68.97;;;36.13;;
24644;SDS011;12780;45.502;9.146;2024-03-22T10:52:56;67.13;;;34.55;;
24644;SDS011;12780;45.502;9.146;2024-03-22T10:55:21;65.05;;;35.38;;
24644;SDS011;12780;45.502;9.146;2024-03-22T10:57:48;64.53;;;35.45;;
24644;SDS011;12780;45.502;9.146;2024-03-22T11:00:14;69.32;;;35.80;;
24644;SDS011;12780;45.502;9.146;2024-03-22T11:02:43;71.82;;;36.58;;
24644;SDS011;12780;45.502;9.146;2024-03-22T11:05:18;69.20;;;36.95;;
24644;SDS011;12780;45.502;9.146;2024-03-22T11:07:44;56.17;;;32.42;;
24644;SDS011;12780;45.502;9.146;2024-03-22T11:10:13;62.58;;;33.63;;
24644;SDS011;12780;45.502;9.146;2024-03-22T11:12:40;59.45;;;32.13;;
24644;SDS011;12780;45.502;9.146;2024-03-22T11:15:06;68.03;;;35.90;;
24644;SDS011;12780;45.502;9.146;2024-03-22T11:17:33;60.20;;;34.35;;
24644;SDS011;12780;45.502;9.146;2024-03-22T11:19:59;57.38;;;31.20;;
24644;SDS011;12780;45.502;9.146;2024-03-22T11:22:25;55.35;;;29.17;;
24644;SDS011;12780;45.502;9.146;2024-03-22T11:24:54;64.70;;;32.80;;
24644;SDS011;12780;45.502;9.146;2024-03-22T11:27:20;56.85;;;30.98;;
24644;SDS011;12780;45.502;9.146;2024-03-22T11:29:46;51.47;;;29.80;;
24644;SDS011;12780;45.502;9.146;2024-03-22T11:32:16;56.10;;;30.35;;
24644;SDS011;12780;45.502;9.146;2024-03-22T11:34:42;61.67;;;32.35;;
24644;SDS011;12780;45.502;9.146;2024-03-22T11:37:09;61.50;;;33.55;;
24644;SDS011;12780;45.502;9.146;2024-03-22T11:39:38;60.72;;;33.28;;
24644;SDS011;12780;45.502;9.146;2024-03-22T11:42:05;56.80;;;31.95;;
24644;SDS011;12780;45.502;9.146;2024-03-22T11:44:32;60.83;;;32.03;;
24644;SDS011;12780;45.502;9.146;2024-03-22T11:46:58;63.05;;;33.33;;
24644;SDS011;12780;45.502;9.146;2024-03-22T11:49:24;63.08;;;34.45;;
24644;SDS011;12780;45.502;9.146;2024-03-22T11:51:51;66.50;;;36.38;;
24644;SDS011;12780;45.502;9.146;2024-03-22T11:54:20;58.05;;;32.28;;
24644;SDS011;12780;45.502;9.146;2024-03-22T11:56:46;59.42;;;32.75;;
24644;SDS011;12780;45.502;9.146;2024-03-22T11:59:12;53.58;;;29.20;;
24644;SDS011;12780;45.502;9.146;2024-03-22T12:01:39;53.05;;;27.58;;
24644;SDS011;12780;45.502;9.146;2024-03-22T12:04:05;47.13;;;26.50;;
24644;SDS011;12780;45.502;9.146;2024-03-22T12:06:33;51.47;;;28.25;;
24644;SDS011;12780;45.502;9.146;2024-03-22T12:09:00;53.03;;;28.20;;
24644;SDS011;12780;45.502;9.146;2024-03-22T12:11:26;61.45;;;31.25;;
24644;SDS011;12780;45.502;9.146;2024-03-22T12:13:51;59.40;;;33.55;;
24644;SDS011;12780;45.502;9.146;2024-03-22T12:16:17;58.03;;;31.48;;
24644;SDS011;12780;45.502;9.146;2024-03-22T12:18:43;55.08;;;31.05;;
24644;SDS011;12780;45.502;9.146;2024-03-22T12:21:09;55.20;;;31.40;;
24644;SDS011;12780;45.502;9.146;2024-03-22T12:23:35;54.63;;;30.77;;
24644;SDS011;12780;45.502;9.146;2024-03-22T12:26:01;59.80;;;29.02;;
24644;SDS011;12780;45.502;9.146;2024-03-22T12:28:27;50.63;;;29.52;;
24644;SDS011;12780;45.502;9.146;2024-03-22T12:30:53;56.28;;;29.80;;
24644;SDS011;12780;45.502;9.146;2024-03-22T12:33:19;48.40;;;28.55;;
24644;SDS011;12780;45.502;9.146;2024-03-22T12:35:45;53.08;;;26.10;;
24644;SDS011;12780;45.502;9.146;2024-03-22T12:38:13;47.28;;;25.38;;
24644;SDS011;12780;45.502;9.146;2024-03-22T12:40:39;49.17;;;26.98;;
24644;SDS011;12780;45.502;9.146;2024-03-22T12:43:05;55.80;;;27.77;;
24644;SDS011;12780;45.502;9.146;2024-03-22T12:45:31;48.90;;;26.05;;
24644;SDS011;12780;45.502;9.146;2024-03-22T12:47:58;50.30;;;27.75;;
24644;SDS011;12780;45.502;9.146;2024-03-22T12:50:24;54.30;;;28.17;;
24644;SDS011;12780;45.502;9.146;2024-03-22T12:52:50;50.33;;;29.25;;
24644;SDS011;12780;45.502;9.146;2024-03-22T12:55:16;56.28;;;30.27;;
24644;SDS011;12780;45.502;9.146;2024-03-22T12:57:42;45.13;;;25.67;;
24644;SDS011;12780;45.502;9.146;2024-03-22T13:00:08;54.65;;;28.70;;
24644;SDS011;12780;45.502;9.146;2024-03-22T13:02:41;49.83;;;26.75;;
24644;SDS011;12780;45.502;9.146;2024-03-22T13:05:07;45.65;;;23.48;;
24644;SDS011;12780;45.502;9.146;2024-03-22T13:07:33;43.72;;;24.70;;
24644;SDS011;12780;45.502;9.146;2024-03-22T13:09:59;43.25;;;24.27;;
24644;SDS011;12780;45.502;9.146;2024-03-22T13:12:26;40.25;;;23.50;;
24644;SDS011;12780;45.502;9.146;2024-03-22T13:14:52;42.15;;;23.42;;
24644;SDS011;12780;45.502;9.146;2024-03-22T13:17:18;43.70;;;21.83;;
24644;SDS011;12780;45.502;9.146;2024-03-22T13:19:45;39.97;;;21.20;;
24644;SDS011;12780;45.502;9.146;2024-03-22T13:22:11;39.92;;;22.30;;
24644;SDS011;12780;45.502;9.146;2024-03-22T13:24:37;43.20;;;22.83;;
24644;SDS011;12780;45.502;9.146;2024-03-22T13:27:03;42.08;;;24.05;;
24644;SDS011;12780;45.502;9.146;2024-03-22T13:29:29;46.75;;;25.70;;
24644;SDS011;12780;45.502;9.146;2024-03-22T13:31:56;41.13;;;23.08;;
24644;SDS011;12780;45.502;9.146;2024-03-22T13:34:22;43.75;;;24.52;;
24644;SDS011;12780;45.502;9.146;2024-03-22T13:36:48;54.75;;;29.00;;
24644;SDS011;12780;45.502;9.146;2024-03-22T13:39:14;41.72;;;23.65;;
24644;SDS011;12780;45.502;9.146;2024-03-22T13:41:41;49.83;;;27.02;;
24644;SDS011;12780;45.502;9.146;2024-03-22T13:44:07;45.33;;;26.10;;
24644;SDS011;12780;45.502;9.146;2024-03-22T13:46:33;53.58;;;29.17;;
24644;SDS011;12780;45.502;9.146;2024-03-22T13:49:01;54.90;;;31.92;;
24644;SDS011;12780;45.502;9.146;2024-03-22T13:51:27;61.63;;;32.45;;
24644;SDS011;12780;45.502;9.146;2024-03-22T13:53:54;57.53;;;31.27;;
24644;SDS011;12780;45.502;9.146;2024-03-22T13:56:20;53.00;;;29.88;;
24644;SDS011;12780;45.502;9.146;2024-03-22T13:58:46;57.63;;;29.58;;
24644;SDS011;12780;45.502;9.146;2024-03-22T14:01:14;55.90;;;30.38;;
24644;SDS011;12780;45.502;9.146;2024-03-22T14:03:40;59.33;;;31.02;;
24644;SDS011;12780;45.502;9.146;2024-03-22T14:06:06;50.63;;;28.23;;
24644;SDS011;12780;45.502;9.146;2024-03-22T14:08:32;47.95;;;23.65;;